createdAt,value
2019-04-11T00:00:09.054Z,99251.20
2019-04-11T00:02:38.364Z,99257.22
2019-04-11T00:05:06.954Z,99260.88
2019-04-11T00:07:36.326Z,99264.25
2019-04-11T00:10:06.229Z,99269.25
2019-04-11T00:12:34.839Z,99271.34
2019-04-11T00:15:04.280Z,99273.88
2019-04-11T00:17:32.872Z,99276.80
2019-04-11T00:20:02.215Z,99274.95
2019-04-11T00:22:30.749Z,99274.70
2019-04-11T00:24:59.031Z,99273.91
2019-04-11T00:27:27.278Z,99277.36
2019-04-11T00:29:55.569Z,99279.13
2019-04-11T00:32:23.823Z,99279.16
2019-04-11T00:34:53.254Z,99283.76
2019-04-11T00:37:21.776Z,99282.58
2019-04-11T00:39:50.083Z,99284.80
2019-04-11T00:42:18.708Z,99278.89
2019-04-11T00:44:48.107Z,99280.34
2019-04-11T00:47:17.170Z,99284.73
2019-04-11T00:49:46.460Z,99287.81
2019-04-11T00:52:16.033Z,99287.03
2019-04-11T00:54:44.837Z,99280.06
2019-04-11T00:57:13.086Z,99281.59
2019-04-11T00:59:42.410Z,99286.73
2019-04-11T01:02:11.533Z,99298.13
2019-04-11T01:04:41.140Z,99286.64
2019-04-11T01:07:09.688Z,99285.20
2019-04-11T01:09:37.922Z,99292.48
2019-04-11T01:12:06.198Z,99293.94
2019-04-11T01:14:37.051Z,99286.13
2019-04-11T01:17:06.171Z,99290.30
2019-04-11T01:19:35.135Z,99286.78
2019-04-11T01:22:03.637Z,99285.48
2019-04-11T01:24:31.872Z,99292.55
2019-04-11T01:27:01.383Z,99291.85
2019-04-11T01:29:29.867Z,99285.77
2019-04-11T01:32:00.195Z,99288.75
2019-04-11T01:34:28.780Z,99285.77
2019-04-11T01:36:57.563Z,99283.95
2019-04-11T01:39:27.975Z,99288.42
2019-04-11T01:41:56.795Z,99300.06
2019-04-11T01:44:25.097Z,99291.11
2019-04-11T01:46:54.166Z,99283.69
2019-04-11T01:49:24.333Z,99292.27
2019-04-11T01:51:52.580Z,99290.72
2019-04-11T01:54:21.766Z,99291.48
2019-04-11T01:56:51.544Z,99297.59
2019-04-11T01:59:20.025Z,99291.53
2019-04-11T02:01:49.899Z,99295.94
2019-04-11T02:04:22.253Z,99300.93
2019-04-11T02:06:50.489Z,99307.13
2019-04-11T02:09:19.899Z,99311.16
2019-04-11T02:11:48.344Z,99303.83
2019-04-11T02:14:19.241Z,99308.90
2019-04-11T02:16:47.387Z,99308.67
2019-04-11T02:19:16.220Z,99308.22
2019-04-11T02:21:44.656Z,99303.86
2019-04-11T02:24:23.749Z,99307.52
2019-04-11T02:27:03.037Z,99311.08
2019-04-11T02:29:31.520Z,99316.89
2019-04-11T02:32:03.394Z,99315.38
2019-04-11T02:34:29.877Z,99314.06
2019-04-11T02:37:00.084Z,99315.82
2019-04-11T02:39:30.806Z,99322.35
2019-04-11T02:41:59.141Z,99316.56
2019-04-11T02:44:43.167Z,99319.55
2019-04-11T02:47:05.194Z,99317.86
2019-04-11T02:49:28.202Z,99315.02
2019-04-11T02:51:56.511Z,99321.33
2019-04-11T02:54:26.488Z,99326.13
2019-04-11T02:56:55.021Z,99325.77
2019-04-11T02:59:25.164Z,99328.10
2019-04-11T03:01:53.467Z,99327.45
2019-04-11T03:04:22.730Z,99326.74
2019-04-11T03:06:52.050Z,99333.23
2019-04-11T03:09:24.134Z,99335.02
2019-04-11T03:11:54.473Z,99334.39
2019-04-11T03:14:23.279Z,99332.00
2019-04-11T03:17:03.660Z,99332.83
2019-04-11T03:19:37.591Z,99340.50
2019-04-11T03:21:52.361Z,99339.71
2019-04-11T03:24:21.913Z,99338.34
2019-04-11T03:26:52.639Z,99339.18
2019-04-11T03:29:21.617Z,99341.90
2019-04-11T03:32:33.625Z,99344.10
2019-04-11T03:37:19.015Z,99339.23
2019-04-11T03:39:41.388Z,99345.77
2019-04-11T03:42:04.075Z,99351.16
2019-04-11T03:44:26.676Z,99354.91
2019-04-11T03:47:08.342Z,99356.09
2019-04-11T03:49:30.547Z,99359.08
2019-04-11T03:51:50.741Z,99358.24
2019-04-11T03:54:19.139Z,99357.75
2019-04-11T03:56:49.284Z,99367.70
2019-04-11T03:59:19.566Z,99368.44
2019-04-11T04:01:48.721Z,99369.84
2019-04-11T04:04:19.990Z,99366.04
2019-04-11T04:06:47.883Z,99374.66
2019-04-11T04:09:19.230Z,99373.45
2019-04-11T04:11:49.818Z,99376.80
2019-04-11T04:14:30.174Z,99375.28
2019-04-11T04:17:17.106Z,99375.74
2019-04-11T04:19:56.663Z,99386.14
2019-04-11T04:22:32.920Z,99386.73
2019-04-11T04:25:03.734Z,99389.02
2019-04-11T04:27:32.712Z,99391.66
2019-04-11T04:30:04.214Z,99397.77
2019-04-11T04:32:32.392Z,99406.14
2019-04-11T04:35:01.793Z,99406.37
2019-04-11T04:37:31.940Z,99407.91
2019-04-11T04:40:21.205Z,99417.21
2019-04-11T04:42:35.986Z,99416.39
2019-04-11T04:45:02.515Z,99413.38
2019-04-11T04:47:38.703Z,99422.18
2019-04-11T04:50:01.469Z,99426.59
2019-04-11T04:52:32.632Z,99424.36
2019-04-11T04:55:02.191Z,99425.65
2019-04-11T04:57:31.790Z,99427.88
2019-04-11T05:00:02.476Z,99431.92
2019-04-11T05:02:32.534Z,99427.31
2019-04-11T05:05:01.456Z,99440.56
2019-04-11T05:07:34.494Z,99438.47
2019-04-11T05:10:00.926Z,99438.44
2019-04-11T05:12:30.288Z,99442.23
2019-04-11T05:14:59.176Z,99447.13
2019-04-11T05:17:28.925Z,99445.73
2019-04-11T05:19:58.533Z,99446.67
2019-04-11T05:22:27.092Z,99445.07
2019-04-11T05:24:56.830Z,99456.89
2019-04-11T05:27:25.356Z,99446.03
2019-04-11T05:29:53.635Z,99450.38
2019-04-11T05:32:21.995Z,99456.17
2019-04-11T05:34:51.177Z,99452.34
2019-04-11T05:37:20.732Z,99455.46
2019-04-11T05:39:50.436Z,99463.14
2019-04-11T05:42:20.026Z,99464.44
2019-04-11T05:44:49.971Z,99466.49
2019-04-11T05:47:19.997Z,99468.63
2019-04-11T05:49:50.610Z,99472.52
2019-04-11T05:52:19.810Z,99467.51
2019-04-11T05:54:52.596Z,99469.48
2019-04-11T05:57:24.122Z,99470.44
2019-04-11T05:59:53.448Z,99467.91
2019-04-11T06:02:29.050Z,99471.72
2019-04-11T06:05:15.284Z,99468.01
2019-04-11T06:07:50.662Z,99475.02
2019-04-11T06:10:39.024Z,99472.66
2019-04-11T06:13:07.954Z,99482.65
2019-04-11T06:15:53.856Z,99485.52
2019-04-11T06:18:30.498Z,99484.48
2019-04-11T06:21:11.744Z,99486.16
2019-04-11T06:23:41.601Z,99491.85
2019-04-11T06:26:30.430Z,99499.80
2019-04-11T06:29:17.440Z,99497.52
2019-04-11T06:32:00.601Z,99499.88
2019-04-11T06:34:30.527Z,99499.20
2019-04-11T06:37:06.099Z,99505.83
2019-04-11T06:39:39.780Z,99507.11
2019-04-11T06:42:10.772Z,99511.56
2019-04-11T06:44:46.273Z,99507.16
2019-04-11T06:47:22.898Z,99512.52
2019-04-11T06:50:09.142Z,99510.77
2019-04-11T06:52:39.145Z,99513.31
2019-04-11T06:55:09.146Z,99518.77
2019-04-11T06:57:38.860Z,99515.92
2019-04-11T07:00:10.034Z,99516.11
2019-04-11T07:02:40.841Z,99518.09
2019-04-11T07:05:11.180Z,99520.77
2019-04-11T07:07:42.979Z,99517.05
2019-04-11T07:10:11.718Z,99521.24
2019-04-11T07:12:57.661Z,99522.02
2019-04-11T07:15:29.364Z,99521.50
2019-04-11T07:18:15.556Z,99516.50
2019-04-11T07:20:54.270Z,99518.75
2019-04-11T07:23:40.626Z,99527.55
2019-04-11T07:26:29.608Z,99525.97
2019-04-11T07:29:05.049Z,99530.87
2019-04-11T07:31:48.195Z,99532.47
2019-04-11T07:34:36.168Z,99529.23
2019-04-11T07:37:21.382Z,99528.95
2019-04-11T07:40:07.579Z,99538.02
2019-04-11T07:42:59.442Z,99530.59
2019-04-11T07:45:30.001Z,99534.00
2019-04-11T07:48:17.205Z,99539.69
2019-04-11T07:50:46.512Z,99538.94
2019-04-11T07:53:17.447Z,99539.58
2019-04-11T07:55:46.671Z,99543.55
2019-04-11T07:58:25.348Z,99541.80
2019-04-11T08:01:14.665Z,99535.94
2019-04-11T08:04:00.219Z,99545.53
2019-04-11T08:06:31.068Z,99548.16
2019-04-11T08:09:10.029Z,99554.45
2019-04-11T08:11:40.112Z,99550.52
2019-04-11T08:14:10.489Z,99551.56
2019-04-11T08:16:57.489Z,99553.83
2019-04-11T08:19:31.078Z,99562.99
2019-04-11T08:22:01.003Z,99552.67
2019-04-11T08:24:34.478Z,99558.95
2019-04-11T08:27:19.739Z,99562.90
2019-04-11T08:29:50.560Z,99560.00
2019-04-11T08:32:27.510Z,99563.55
2019-04-11T08:34:57.627Z,99563.62
2019-04-11T08:37:43.920Z,99567.06
2019-04-11T08:40:13.798Z,99569.06
2019-04-11T08:43:02.624Z,99561.27
2019-04-11T08:45:33.832Z,99576.23
2019-04-11T08:48:04.499Z,99571.01
2019-04-11T08:50:34.604Z,99577.16
2019-04-11T08:53:20.625Z,99577.13
2019-04-11T08:55:55.788Z,99572.55
2019-04-11T08:58:22.602Z,99579.66
2019-04-11T09:00:57.490Z,99579.50
2019-04-11T09:03:33.552Z,99582.16
2019-04-11T09:06:09.425Z,99575.48
2019-04-11T09:08:56.474Z,99580.45
2019-04-11T09:11:26.562Z,99576.63
2019-04-11T09:14:06.099Z,99572.27
2019-04-11T09:16:45.809Z,99569.81
2019-04-11T09:19:18.853Z,99570.09
2019-04-11T09:22:00.728Z,99570.92
2019-04-11T09:24:40.879Z,99572.23
2019-04-11T09:27:28.886Z,99572.67
2019-04-11T09:30:18.951Z,99562.36
2019-04-11T09:33:05.343Z,99567.59
2019-04-11T09:35:41.586Z,99575.20
2019-04-11T09:38:18.113Z,99565.82
2019-04-11T09:41:04.282Z,99565.91
2019-04-11T09:43:40.150Z,99563.66
2019-04-11T09:46:26.211Z,99566.92
2019-04-11T09:49:06.577Z,99564.73
2019-04-11T09:51:53.302Z,99559.27
2019-04-11T09:54:30.259Z,99570.41
2019-04-11T09:57:18.716Z,99569.69
2019-04-11T09:59:54.088Z,99571.08
2019-04-11T10:02:25.268Z,99573.25
2019-04-11T10:04:54.776Z,99563.48
2019-04-11T10:07:28.118Z,99564.22
2019-04-11T10:10:00.821Z,99568.02
2019-04-11T10:12:40.462Z,99559.33
2019-04-11T10:15:09.535Z,99563.40
2019-04-11T10:17:42.488Z,99561.43
2019-04-11T10:20:12.812Z,99558.98
2019-04-11T10:22:43.908Z,99563.66
2019-04-11T10:25:14.871Z,99557.86
2019-04-11T10:27:57.257Z,99555.92
2019-04-11T10:30:44.072Z,99564.59
2019-04-11T10:33:23.276Z,99564.56
2019-04-11T10:36:12.555Z,99566.61
2019-04-11T10:38:41.062Z,99568.05
2019-04-11T10:41:26.759Z,99559.95
2019-04-11T10:43:54.989Z,99557.75
2019-04-11T10:46:25.159Z,99560.31
2019-04-11T10:48:58.139Z,99564.95
2019-04-11T10:51:43.024Z,99566.73
2019-04-11T10:54:13.569Z,99563.41
2019-04-11T10:56:43.685Z,99572.70
2019-04-11T10:59:13.394Z,99572.11
2019-04-11T11:02:00.169Z,99565.73
2019-04-11T11:04:30.449Z,99573.34
2019-04-11T11:07:00.450Z,99565.02
2019-04-11T11:09:39.370Z,99570.28
2019-04-11T11:12:12.743Z,99575.25
2019-04-11T11:14:49.096Z,99575.05
2019-04-11T11:17:43.876Z,99580.08
2019-04-11T11:20:16.417Z,99578.02
2019-04-11T11:22:48.199Z,99579.09
2019-04-11T11:25:35.095Z,99582.09
2019-04-11T11:28:03.745Z,99591.03
2019-04-11T11:30:39.907Z,99587.45
2019-04-11T11:33:09.965Z,99598.66
2019-04-11T11:35:52.157Z,99597.23
2019-04-11T11:38:22.219Z,99585.87
2019-04-11T11:40:56.245Z,99595.78
2019-04-11T11:43:28.814Z,99595.88
2019-04-11T11:46:07.439Z,99592.79
2019-04-11T11:48:39.864Z,99591.14
2019-04-11T11:51:28.255Z,99591.25
2019-04-11T11:53:57.640Z,99593.53
2019-04-11T11:56:26.291Z,99590.02
2019-04-11T11:59:15.510Z,99596.48
2019-04-11T12:02:04.470Z,99594.39
2019-04-11T12:04:40.529Z,99595.08
2019-04-11T12:07:12.882Z,99590.28
2019-04-11T12:09:46.683Z,99595.68
2019-04-11T12:12:22.531Z,99593.92
2019-04-11T12:15:08.391Z,99593.46
2019-04-11T12:17:54.353Z,99589.30
2019-04-11T12:20:24.940Z,99592.88
2019-04-11T12:22:53.734Z,99590.11
2019-04-11T12:25:25.176Z,99596.48
2019-04-11T12:27:56.246Z,99589.34
2019-04-11T12:30:33.927Z,99584.68
2019-04-11T12:33:03.953Z,99584.19
2019-04-11T12:35:33.826Z,99590.73
2019-04-11T12:38:20.340Z,99587.17
2019-04-11T12:41:06.739Z,99594.99
2019-04-11T12:43:39.372Z,99589.66
2019-04-11T12:46:29.965Z,99592.05
2019-04-11T12:48:56.937Z,99590.52
2019-04-11T12:51:42.944Z,99586.03
2019-04-11T12:54:11.404Z,99592.33
2019-04-11T12:56:41.303Z,99590.88
2019-04-11T12:59:09.569Z,99590.31
2019-04-11T13:01:41.864Z,99594.61
2019-04-11T13:04:14.499Z,99586.57
2019-04-11T13:07:00.294Z,99588.20
2019-04-11T13:09:39.031Z,99580.99
2019-04-11T13:12:08.901Z,99586.75
2019-04-11T13:14:38.816Z,99590.52
2019-04-11T13:17:26.918Z,99585.72
2019-04-11T13:20:04.538Z,99588.41
2019-04-11T13:22:28.473Z,99588.05
2019-04-11T13:25:07.143Z,99587.66
2019-04-11T13:27:37.039Z,99588.83
2019-04-11T13:30:23.797Z,99586.77
2019-04-11T13:32:53.651Z,99588.14
2019-04-11T13:35:32.311Z,99577.81
2019-04-11T13:38:04.845Z,99577.54
2019-04-11T13:40:46.782Z,99576.26
2019-04-11T13:43:34.743Z,99585.40
2019-04-11T13:46:13.432Z,99581.46
2019-04-11T13:48:59.458Z,99574.56
2019-04-11T13:51:32.356Z,99572.18
2019-04-11T13:54:18.300Z,99567.73
2019-04-11T13:57:00.456Z,99574.37
2019-04-11T14:08:41.899Z,99569.23
2019-04-11T14:11:11.823Z,99571.51
2019-04-11T14:13:41.703Z,99579.61
2019-04-11T14:16:14.764Z,99572.94
2019-04-11T14:18:53.560Z,99570.36
2019-04-11T14:21:23.467Z,99570.86
2019-04-11T14:24:11.560Z,99565.00
2019-04-11T14:26:41.375Z,99571.69
2019-04-11T14:29:11.250Z,99567.28
2019-04-11T14:31:43.891Z,99567.31
2019-04-11T14:34:16.742Z,99572.05
2019-04-11T14:36:49.208Z,99576.09
2019-04-11T14:39:28.402Z,99578.11
2019-04-11T14:42:01.004Z,99575.30
2019-04-11T14:44:30.878Z,99573.70
2019-04-11T14:47:16.611Z,99579.27
2019-04-11T14:49:46.480Z,99577.02
2019-04-11T14:52:17.269Z,99576.13
2019-04-11T14:54:48.977Z,99580.95
2019-04-11T14:57:17.708Z,99575.46
2019-04-11T14:59:47.580Z,99581.34
2019-04-11T15:02:17.503Z,99577.33
2019-04-11T15:04:59.338Z,99568.89
2019-04-11T15:07:28.601Z,99574.64
2019-04-11T15:10:16.803Z,99573.22
2019-04-11T15:12:45.713Z,99574.81
2019-04-11T15:15:32.346Z,99569.86
2019-04-11T15:18:02.252Z,99565.92
2019-04-11T15:20:35.082Z,99564.84
2019-04-11T15:23:10.668Z,99569.13
2019-04-11T15:25:40.547Z,99568.78
2019-04-11T15:28:19.314Z,99570.62
2019-04-11T15:31:05.283Z,99569.39
2019-04-11T15:33:44.282Z,99573.56
2019-04-11T15:36:20.166Z,99573.64
2019-04-11T15:39:05.326Z,99583.23
2019-04-11T15:41:33.737Z,99579.76
2019-04-11T15:44:20.036Z,99579.68
2019-04-11T15:46:48.515Z,99569.75
2019-04-11T15:49:31.194Z,99576.86
2019-04-11T15:51:59.248Z,99580.53
2019-04-11T15:54:37.182Z,99572.27
2019-04-11T15:57:06.744Z,99576.97
2019-04-11T15:59:43.838Z,99579.22
2019-04-11T16:02:17.041Z,99573.88
2019-04-11T16:04:46.960Z,99580.14
2019-04-11T16:07:32.910Z,99571.41
2019-04-11T16:10:02.550Z,99575.31
2019-04-11T16:12:47.179Z,99569.56
2019-04-11T16:15:23.303Z,99578.33
2019-04-11T16:18:09.258Z,99573.42
2019-04-11T16:20:37.524Z,99576.39
2019-04-11T16:23:25.909Z,99576.73
2019-04-11T16:25:53.480Z,99577.16
2019-04-11T16:28:23.351Z,99576.77
2019-04-11T16:30:53.269Z,99583.68
2019-04-11T16:33:23.144Z,99581.94
2019-04-11T16:35:57.006Z,99579.70
2019-04-11T16:38:40.616Z,99581.28
2019-04-11T16:41:26.616Z,99586.36
2019-04-11T16:44:02.483Z,99586.83
2019-04-11T16:46:41.199Z,99595.17
2019-04-11T16:49:09.463Z,99591.66
2019-04-11T16:51:37.749Z,99597.37
2019-04-11T16:54:09.604Z,99603.09
2019-04-11T16:56:35.929Z,99602.58
2019-04-11T16:59:04.277Z,99598.35
2019-04-11T17:01:32.505Z,99596.53
2019-04-11T17:04:00.773Z,99607.83
2019-04-11T17:06:46.905Z,99601.95
2019-04-11T17:09:32.939Z,99605.05
2019-04-11T17:12:01.234Z,99609.10
2019-04-11T17:14:33.009Z,99610.63
2019-04-11T17:17:00.992Z,99598.27
2019-04-11T17:19:29.468Z,99607.03
2019-04-11T17:21:57.708Z,99609.36
2019-04-11T17:24:25.923Z,99613.59
2019-04-11T17:26:54.212Z,99610.12
2019-04-11T17:29:24.747Z,99615.32
2019-04-11T17:31:55.628Z,99619.98
2019-04-11T17:34:22.466Z,99618.63
2019-04-11T17:36:50.734Z,99619.64
2019-04-11T17:39:18.972Z,99625.69
2019-04-11T17:41:47.247Z,99623.49
2019-04-11T17:44:15.476Z,99621.25
2019-04-11T17:46:43.753Z,99628.52
2019-04-11T17:49:11.982Z,99630.39
2019-04-11T17:51:42.644Z,99636.05
2019-04-11T17:54:10.673Z,99632.41
2019-04-11T17:56:39.516Z,99629.45
2019-04-11T17:59:07.752Z,99642.56
2019-04-11T18:01:38.073Z,99642.02
2019-04-11T18:04:08.656Z,99643.75
2019-04-11T18:06:35.947Z,99644.51
2019-04-11T18:09:06.265Z,99650.08
2019-04-11T18:11:34.569Z,99651.81
2019-04-11T18:14:02.852Z,99644.79
2019-04-11T18:16:31.689Z,99649.57
2019-04-11T18:19:00.113Z,99652.44
2019-04-11T18:21:28.339Z,99654.30
2019-04-11T18:23:56.629Z,99661.84
2019-04-11T18:26:24.862Z,99657.97
2019-04-11T18:28:53.085Z,99665.98
2019-04-11T18:31:24.781Z,99671.45
2019-04-11T18:33:51.313Z,99671.08
2019-04-11T18:36:19.579Z,99673.61
2019-04-11T18:38:47.823Z,99680.12
2019-04-11T18:41:16.102Z,99677.31
2019-04-11T18:43:46.800Z,99678.63
2019-04-11T18:46:14.332Z,99674.69
2019-04-11T18:48:42.557Z,99677.64
2019-04-11T18:51:10.851Z,99680.31
2019-04-11T18:53:39.079Z,99684.09
2019-04-11T18:56:07.367Z,99678.53
2019-04-11T18:58:35.594Z,99689.02
2019-04-11T19:01:08.872Z,99686.30
2019-04-11T19:03:36.414Z,99693.52
2019-04-11T19:06:04.548Z,99687.42
2019-04-11T19:08:32.879Z,99691.07
2019-04-11T19:11:01.131Z,99690.56
2019-04-11T19:13:29.391Z,99682.78
2019-04-11T19:15:57.629Z,99682.47
2019-04-11T19:18:25.922Z,99683.77
2019-04-11T19:20:54.159Z,99684.39
2019-04-11T19:23:22.437Z,99678.67
2019-04-11T19:25:50.656Z,99681.77
2019-04-11T19:28:18.947Z,99684.09
2019-04-11T19:30:47.184Z,99684.89
2019-04-11T19:35:42.270Z,99688.02
2019-04-11T19:38:12.899Z,99684.14
2019-04-11T19:40:41.455Z,99683.95
2019-04-11T19:43:09.704Z,99684.75
2019-04-11T19:45:37.982Z,99689.05
2019-04-11T19:48:06.234Z,99696.13
2019-04-11T19:50:34.510Z,99691.25
2019-04-11T19:53:03.463Z,99692.88
2019-04-11T19:55:49.147Z,99695.84
2019-04-11T19:58:19.293Z,99693.22
2019-04-11T20:00:50.970Z,99691.23
2019-04-11T20:03:17.603Z,99691.23
2019-04-11T20:05:45.888Z,99693.06
2019-04-11T20:08:14.117Z,99692.59
2019-04-11T20:10:42.384Z,99693.91
2019-04-11T20:13:10.616Z,99693.53
2019-04-11T20:15:42.187Z,99692.96
2019-04-11T20:18:08.850Z,99697.27
2019-04-11T20:20:37.655Z,99697.55
2019-04-11T20:23:10.587Z,99701.52
2019-04-11T20:25:36.005Z,99698.86
2019-04-11T20:28:04.355Z,99691.36
2019-04-11T20:30:32.581Z,99690.66
2019-04-11T20:33:03.084Z,99701.63
2019-04-11T20:35:30.832Z,99696.87
2019-04-11T20:37:59.109Z,99698.70
2019-04-11T20:40:27.345Z,99706.88
2019-04-11T20:42:55.616Z,99706.31
2019-04-11T20:45:25.408Z,99706.95
2019-04-11T20:47:53.690Z,99700.08
2019-04-11T20:50:21.910Z,99704.43
2019-04-11T20:52:50.184Z,99699.24
2019-04-11T20:55:18.420Z,99703.54
2019-04-11T20:57:46.683Z,99702.91
2019-04-11T21:00:14.911Z,99702.97
2019-04-11T21:02:43.181Z,99700.15
2019-04-11T21:05:11.407Z,99703.03
2019-04-11T21:07:39.644Z,99698.31
2019-04-11T21:10:07.916Z,99692.55
2019-04-11T21:12:37.258Z,99687.31
2019-04-11T21:15:07.369Z,99694.63
2019-04-11T21:17:35.563Z,99689.20
2019-04-11T21:20:07.398Z,99691.14
2019-04-11T21:22:35.623Z,99692.92
2019-04-11T21:25:04.759Z,99690.11
2019-04-11T21:27:32.985Z,99690.25
2019-04-11T21:30:01.278Z,99691.73
2019-04-11T21:32:31.792Z,99685.55
2019-04-11T21:35:01.738Z,99694.50
2019-04-11T21:37:30.126Z,99691.47
2019-04-11T21:39:59.124Z,99688.84
2019-04-11T21:42:27.356Z,99696.70
2019-04-11T21:44:55.578Z,99691.62
2019-04-11T21:47:23.838Z,99690.90
2019-04-11T21:49:52.079Z,99698.39
2019-04-11T21:52:20.354Z,99696.75
2019-04-11T21:54:48.580Z,99693.41
2019-04-11T21:57:18.413Z,99694.83
2019-04-11T21:59:51.264Z,99694.72
2019-04-11T22:02:16.862Z,99693.46
2019-04-11T22:04:45.082Z,99693.83
2019-04-11T22:07:13.368Z,99694.35
2019-04-11T22:09:41.607Z,99690.42
2019-04-11T22:12:09.856Z,99692.82
2019-04-11T22:14:41.383Z,99692.98
2019-04-11T22:17:08.080Z,99689.95
2019-04-11T22:19:36.310Z,99701.63
2019-04-11T22:22:04.591Z,99693.52
2019-04-11T22:24:34.091Z,99696.39
2019-04-11T22:27:02.312Z,99697.33
2019-04-11T22:29:30.575Z,99694.35
2019-04-11T22:31:58.802Z,99696.50
2019-04-11T22:34:37.339Z,99695.97
2019-04-11T22:37:05.572Z,99695.97
2019-04-11T22:39:33.853Z,99698.06
2019-04-11T22:42:02.083Z,99699.37
2019-04-11T22:44:30.345Z,99697.70
2019-04-11T22:46:58.579Z,99697.70
2019-04-11T22:49:26.841Z,99702.20
2019-04-11T22:51:55.076Z,99703.98
2019-04-11T22:54:23.357Z,99699.64
2019-04-11T22:56:51.586Z,99694.23
2019-04-11T22:59:19.853Z,99695.77
2019-04-11T23:01:48.655Z,99694.45
2019-04-11T23:04:17.636Z,99696.02
2019-04-11T23:06:47.145Z,99704.45
2019-04-11T23:09:16.673Z,99707.55
2019-04-11T23:11:45.935Z,99706.60
2019-04-11T23:14:15.936Z,99712.72
2019-04-11T23:16:44.781Z,99706.60
2019-04-11T23:19:14.331Z,99710.58
2019-04-11T23:21:42.804Z,99709.69
2019-04-11T23:24:12.178Z,99717.84
2019-04-11T23:26:40.761Z,99711.72
2019-04-11T23:29:08.992Z,99706.02
2019-04-11T23:31:37.261Z,99708.05
2019-04-11T23:34:05.491Z,99701.41
2019-04-11T23:36:33.782Z,99703.97
2019-04-11T23:39:02.008Z,99699.36
2019-04-11T23:41:30.408Z,99702.17
2019-04-11T23:43:58.624Z,99703.37
2019-04-11T23:46:26.894Z,99698.45
2019-04-11T23:48:55.702Z,99703.01
2019-04-11T23:51:26.241Z,99702.48
2019-04-11T23:53:54.256Z,99708.78
2019-04-11T23:56:22.519Z,99706.91
2019-04-11T23:58:50.791Z,99707.23
